Time;durP1;ratioP1;P1;durP2;ratioP2;P2;SDS_P1;SDS_P2;PMS_P1;PMS_P2;Temp;Humidity;BMP_temperature;BMP_pressure;BME280_temperature;BME280_humidity;BME280_pressure;Samples;Min_cycle;Max_cycle;Signal;HPM_P1;HPM_P2
2022/05/18 00:01:09;;;;;;;13.00;7.33;;;;;;;7.33;89.66;98705.13;1728130;80;20880;-82
2022/05/18 00:03:39;;;;;;;16.12;8.28;;;;;;;7.25;88.99;98710.91;1729625;80;21041;-85
2022/05/18 00:06:05;;;;;;;12.75;8.25;;;;;;;7.07;90.02;98708.41;1715436;82;21265;-82
2022/05/18 00:08:36;;;;;;;19.67;9.78;;;;;;;7.03;89.08;98709.95;1715173;80;21099;-81
2022/05/18 00:11:12;;;;;;;18.00;9.85;;;;;;;6.87;90.15;98714.75;1720501;82;20981;-81
2022/05/18 00:13:39;;;;;;;21.17;9.55;;;;;;;6.84;89.57;98720.09;1742853;81;21016;-85
2022/05/18 00:16:05;;;;;;;17.23;10.00;;;;;;;6.79;89.51;98713.25;1743177;82;21033;-84
2022/05/18 00:18:31;;;;;;;17.02;9.30;;;;;;;6.75;89.28;98718.80;1739473;80;21561;-85
2022/05/18 00:20:57;;;;;;;18.65;9.63;;;;;;;6.73;89.20;98720.92;1733023;82;21187;-85
2022/05/18 00:23:23;;;;;;;13.68;10.05;;;;;;;6.71;89.47;98724.39;1742933;81;20953;-85
2022/05/18 00:25:49;;;;;;;20.70;10.18;;;;;;;6.69;89.31;98722.47;1717292;82;20962;-84
2022/05/18 00:28:15;;;;;;;13.58;8.75;;;;;;;6.65;90.18;98722.10;1703726;80;20939;-85
2022/05/18 00:30:41;;;;;;;19.57;8.40;;;;;;;6.59;90.52;98723.60;1728433;80;20951;-85
2022/05/18 00:33:09;;;;;;;18.75;8.85;;;;;;;6.55;89.93;98728.63;1728577;81;22042;-85
2022/05/18 00:35:35;;;;;;;14.00;7.42;;;;;;;6.49;89.60;98728.21;1742903;82;21154;-81
2022/05/18 00:38:01;;;;;;;10.98;6.30;;;;;;;6.36;89.65;98741.41;1689054;82;21013;-85
2022/05/18 00:40:27;;;;;;;11.03;6.22;;;;;;;6.32;89.04;98744.78;1743119;82;21414;-82
2022/05/18 00:42:53;;;;;;;9.88;5.55;;;;;;;6.21;88.51;98749.13;1743256;81;20977;-84
2022/05/18 00:45:19;;;;;;;14.28;6.67;;;;;;;6.14;88.52;98754.61;1743082;81;21330;-84
2022/05/18 00:47:45;;;;;;;11.83;7.08;;;;;;;6.04;89.02;98757.59;1743146;81;21440;-85
2022/05/18 00:50:31;;;;;;;11.38;5.85;;;;;;;6.00;89.18;98758.59;1738995;80;20909;-85
2022/05/18 00:53:05;;;;;;;12.45;7.53;;;;;;;5.97;87.98;98760.91;1735075;81;21476;-85
2022/05/18 00:55:33;;;;;;;18.40;8.18;;;;;;;5.88;88.31;98762.56;1732882;80;21009;-81
2022/05/18 00:58:25;;;;;;;13.22;7.22;;;;;;;5.84;90.24;98770.81;1703230;84;21299;-85
2022/05/18 01:00:51;;;;;;;12.60;5.92;;;;;;;5.84;90.41;98772.69;1724683;82;21050;-81
2022/05/18 01:03:24;;;;;;;12.65;6.60;;;;;;;5.80;89.56;98770.96;1714184;80;20903;-85
2022/05/18 01:05:56;;;;;;;12.03;6.55;;;;;;;5.72;90.39;98779.89;1715857;82;21451;-84
2022/05/18 01:08:34;;;;;;;11.08;6.20;;;;;;;5.71;89.28;98783.63;1704344;80;22058;-85
2022/05/18 01:11:00;;;;;;;10.30;6.50;;;;;;;5.63;90.04;98790.15;1743031;82;21314;-82
2022/05/18 01:13:25;;;;;;;9.30;6.53;;;;;;;5.43;89.19;98784.24;1742899;81;20842;-85
2022/05/18 01:15:51;;;;;;;9.93;5.85;;;;;;;5.43;89.19;98784.24;1743396;82;20993;-82
2022/05/18 01:18:17;;;;;;;7.45;4.12;;;;;;;5.38;88.88;98794.31;1741654;80;20937;-85
2022/05/18 01:20:43;;;;;;;14.03;6.53;;;;;;;5.16;90.67;98804.74;1717207;80;20994;-85
2022/05/18 01:23:26;;;;;;;11.85;6.78;;;;;;;5.14;90.39;98806.84;1728304;81;21050;-85
2022/05/18 01:26:30;;;;;;;11.15;6.10;;;;;;;5.13;90.95;98805.70;1734170;82;21586;-82
2022/05/18 01:28:58;;;;;;;11.85;6.47;;;;;;;5.11;89.90;98813.99;1710134;82;21017;-85
2022/05/18 01:31:49;;;;;;;10.45;5.75;;;;;;;5.04;90.69;98816.78;1715463;80;21090;-85
2022/05/18 01:34:18;;;;;;;13.62;5.83;;;;;;;5.00;90.07;98824.97;1728549;80;21144;-84
2022/05/18 01:36:44;;;;;;;8.73;5.78;;;;;;;4.91;90.55;98823.62;1737852;80;21298;-86
2022/05/18 01:39:20;;;;;;;13.55;5.90;;;;;;;4.88;91.05;98822.74;1743136;82;20881;-86
2022/05/18 01:42:10;;;;;;;9.53;5.67;;;;;;;4.90;90.71;98829.23;1743003;81;21072;-83
2022/05/18 01:44:39;;;;;;;9.78;6.37;;;;;;;4.89;90.82;98830.28;1743076;82;21014;-86
2022/05/18 01:47:05;;;;;;;12.28;6.47;;;;;;;4.87;90.88;98836.38;1723675;82;21045;-82
2022/05/18 01:49:32;;;;;;;10.75;6.87;;;;;;;4.83;90.73;98833.33;1723444;82;21055;-86
2022/05/18 01:51:58;;;;;;;10.75;6.28;;;;;;;4.83;90.16;98841.38;1725373;82;20991;-83
2022/05/18 01:54:24;;;;;;;11.30;5.33;;;;;;;4.79;90.84;98842.88;1729214;80;20894;-85
2022/05/18 01:56:50;;;;;;;10.45;5.70;;;;;;;4.75;90.83;98847.04;1723266;82;20887;-83
2022/05/18 01:59:16;;;;;;;9.63;5.42;;;;;;;4.65;90.95;98850.75;1725794;80;21442;-86
2022/05/18 02:01:44;;;;;;;15.18;7.20;;;;;;;4.56;91.78;98854.25;1743185;81;21917;-83
2022/05/18 02:04:12;;;;;;;14.58;5.67;;;;;;;4.56;91.49;98852.91;1737471;80;21016;-83
2022/05/18 02:06:38;;;;;;;14.03;6.42;;;;;;;4.56;90.28;98848.06;1707329;82;21053;-85
2022/05/18 02:09:04;;;;;;;9.23;5.97;;;;;;;4.52;90.20;98857.05;1704426;80;21014;-83
2022/05/18 02:11:32;;;;;;;13.53;6.08;;;;;;;4.43;91.46;98867.25;1706421;82;21094;-85
2022/05/18 02:13:58;;;;;;;9.13;5.12;;;;;;;4.44;90.35;98864.89;1715380;80;21132;-85
2022/05/18 02:16:24;;;;;;;8.88;5.53;;;;;;;4.42;90.71;98872.84;1727915;82;21002;-80
2022/05/18 02:18:50;;;;;;;12.15;5.90;;;;;;;4.38;90.78;98877.83;1721745;80;21523;-83
2022/05/18 02:21:16;;;;;;;13.30;5.80;;;;;;;4.36;91.10;98878.58;1743291;82;21100;-80
2022/05/18 02:23:42;;;;;;;12.75;5.47;;;;;;;4.35;90.94;98880.94;1743082;81;20866;-83
2022/05/18 02:26:11;;;;;;;9.15;4.65;;;;;;;4.32;91.35;98877.36;1740278;81;21332;-80
2022/05/18 02:28:37;;;;;;;11.65;5.60;;;;;;;4.23;91.36;98884.03;1714958;80;21014;-83
2022/05/18 02:31:04;;;;;;;13.10;5.62;;;;;;;4.21;90.74;98881.58;1733667;80;20982;-80
2022/05/18 02:33:30;;;;;;;9.75;5.87;;;;;;;4.23;90.20;98888.05;1741578;80;20945;-82
2022/05/18 02:35:56;;;;;;;9.20;5.40;;;;;;;4.22;90.35;98891.78;1728984;80;20908;-79
2022/05/18 02:38:22;;;;;;;9.50;5.40;;;;;;;4.19;90.68;98897.07;1728987;80;21241;-80
2022/05/18 02:40:48;;;;;;;11.05;5.65;;;;;;;4.16;91.04;98906.05;1743498;82;20921;-80
2022/05/18 02:43:14;;;;;;;9.10;5.58;;;;;;;4.16;90.42;98906.88;1742936;81;21013;-80
2022/05/18 02:45:40;;;;;;;7.10;4.33;;;;;;;4.12;89.33;98908.36;1743458;82;20870;-80
2022/05/18 02:48:07;;;;;;;10.40;5.80;;;;;;;4.03;89.37;98912.34;1743242;81;20984;-80
2022/05/18 02:50:33;;;;;;;8.13;4.15;;;;;;;4.01;90.11;98911.71;1719024;82;21149;-83
2022/05/18 02:53:00;;;;;;;9.20;5.60;;;;;;;4.02;89.79;98921.95;1713521;82;20993;-83
2022/05/18 02:58:10;;;;;;;8.18;5.33;;;;;;;3.91;89.54;98930.13;1703069;80;21009;-85
2022/05/18 03:00:37;;;;;;;9.20;5.08;;;;;;;3.84;89.66;98928.00;1710470;80;22348;-83
2022/05/18 03:03:03;;;;;;;11.45;5.20;;;;;;;3.82;89.57;98934.10;1728393;81;21116;-82
2022/05/18 03:05:29;;;;;;;11.68;5.05;;;;;;;3.72;90.76;98939.92;1721146;80;20879;-83
2022/05/18 03:07:57;;;;;;;12.55;5.45;;;;;;;3.67;90.92;98943.75;1703125;83;21041;-83
2022/05/18 03:10:23;;;;;;;11.83;4.67;;;;;;;3.65;90.40;98952.01;1738681;80;21492;-85
2022/05/18 03:12:49;;;;;;;8.38;5.20;;;;;;;3.63;90.79;98958.11;1743150;81;21084;-83
2022/05/18 03:15:15;;;;;;;7.22;4.92;;;;;;;3.60;90.39;98963.91;1742933;82;21835;-82
2022/05/18 03:17:41;;;;;;;9.35;4.45;;;;;;;3.57;90.22;98958.95;1713414;83;21018;-85
2022/05/18 03:20:07;;;;;;;8.38;5.03;;;;;;;3.52;90.81;98972.17;1736839;80;20929;-82
2022/05/18 03:25:18;;;;;;;10.40;4.78;;;;;;;3.41;91.05;98979.50;1729726;80;21008;-82
2022/05/18 03:27:44;;;;;;;11.03;5.28;;;;;;;3.36;91.03;98985.51;1713470;83;21489;-83
2022/05/18 03:30:12;;;;;;;7.20;4.62;;;;;;;3.42;90.79;98989.70;1725020;80;20864;-83
2022/05/18 03:32:39;;;;;;;9.07;5.40;;;;;;;3.39;90.95;98989.09;1736686;81;21024;-85
2022/05/18 03:35:07;;;;;;;11.97;4.85;;;;;;;3.48;90.38;98997.73;1743247;82;21281;-85
2022/05/18 03:37:33;;;;;;;11.83;5.28;;;;;;;3.52;90.06;98993.61;1743036;81;21017;-85
2022/05/18 03:39:59;;;;;;;8.53;4.05;;;;;;;3.55;90.25;99001.74;1723317;82;21320;-85
2022/05/18 03:42:26;;;;;;;15.85;4.60;;;;;;;3.66;89.85;99005.10;1729599;80;20941;-85
2022/05/18 03:44:52;;;;;;;10.20;5.37;;;;;;;3.67;90.11;99009.42;1732022;80;21463;-82
2022/05/18 03:47:18;;;;;;;8.60;5.25;;;;;;;3.76;89.68;99008.67;1728412;80;20863;-83
2022/05/18 03:49:44;;;;;;;9.15;4.70;;;;;;;3.80;89.44;99017.44;1741531;81;20984;-83
2022/05/18 03:52:10;;;;;;;10.65;5.40;;;;;;;3.89;89.10;99014.82;1746053;80;21140;-82
2022/05/18 03:54:37;;;;;;;9.28;5.60;;;;;;;3.98;88.97;99019.43;1730713;80;21081;-82
2022/05/18 03:57:06;;;;;;;8.35;4.67;;;;;;;4.10;89.14;99026.28;1721729;82;21028;-83
2022/05/18 03:59:31;;;;;;;8.43;4.67;;;;;;;4.21;88.69;99028.31;1740610;80;21042;-86
2022/05/18 04:01:57;;;;;;;8.08;4.78;;;;;;;4.20;88.87;99031.52;1743230;81;21590;-85
2022/05/18 04:04:23;;;;;;;9.00;5.00;;;;;;;4.36;88.26;99038.73;1734120;80;21228;-85
2022/05/18 04:06:49;;;;;;;20.72;8.05;;;;;;;4.45;88.32;99038.30;1713558;83;20895;-85
2022/05/18 04:09:15;;;;;;;16.57;9.10;;;;;;;4.63;87.43;99039.43;1724472;80;21219;-83
2022/05/18 04:11:41;;;;;;;19.48;9.10;;;;;;;4.75;87.19;99037.16;1743243;81;20889;-83
2022/05/18 04:14:07;;;;;;;18.50;8.80;;;;;;;4.75;87.55;99045.73;1736074;80;21499;-83
2022/05/18 04:16:34;;;;;;;12.88;6.00;;;;;;;4.80;88.13;99045.41;1720337;83;21244;-84
2022/05/18 04:19:00;;;;;;;19.95;6.67;;;;;;;4.90;87.85;99050.28;1718664;80;21092;-83
2022/05/18 04:21:26;;;;;;;8.18;5.05;;;;;;;5.04;87.33;99050.50;1720998;83;20911;-83
2022/05/18 04:23:52;;;;;;;7.92;4.62;;;;;;;5.18;86.79;99052.53;1722196;80;21029;-83
2022/05/18 04:26:18;;;;;;;8.38;4.83;;;;;;;5.33;86.32;99056.24;1713945;82;20986;-85
2022/05/18 04:28:46;;;;;;;13.45;5.50;;;;;;;5.45;86.36;99053.64;1715803;80;21015;-86
2022/05/18 04:31:12;;;;;;;12.00;5.80;;;;;;;5.59;86.17;99054.64;1734683;80;20965;-83
2022/05/18 04:33:39;;;;;;;8.75;5.58;;;;;;;5.72;86.05;99056.88;1738936;80;20895;-82
2022/05/18 04:36:05;;;;;;;12.82;6.45;;;;;;;5.88;85.88;99059.80;1723153;82;21462;-83
2022/05/18 04:38:32;;;;;;;10.65;5.87;;;;;;;6.07;85.62;99056.64;1713914;80;21074;-80
2022/05/18 04:40:58;;;;;;;10.78;6.75;;;;;;;6.28;85.18;99057.21;1718271;80;21273;-83
2022/05/18 04:43:24;;;;;;;9.93;6.17;;;;;;;6.41;85.24;99055.18;1728034;80;21056;-83
2022/05/18 04:45:51;;;;;;;8.90;5.87;;;;;;;6.55;85.03;99059.84;1741240;82;21020;-80
2022/05/18 04:48:18;;;;;;;9.60;5.58;;;;;;;6.71;84.87;99063.77;1719593;81;21016;-84
2022/05/18 04:50:45;;;;;;;16.15;5.80;;;;;;;6.83;84.62;99059.23;1734965;80;21039;-80
2022/05/18 04:53:11;;;;;;;13.53;7.10;;;;;;;6.93;84.36;99057.34;1728476;81;21492;-80
2022/05/18 04:55:37;;;;;;;11.20;6.12;;;;;;;7.16;84.22;99058.72;1732319;80;21430;-84
2022/05/18 04:58:03;;;;;;;12.73;4.75;;;;;;;7.28;83.47;99061.45;1742932;81;20885;-81
2022/05/18 05:00:29;;;;;;;13.00;5.40;;;;;;;7.40;81.92;99060.92;1739510;82;20944;-80
2022/05/18 05:02:57;;;;;;;10.28;4.20;;;;;;;7.62;81.93;99057.13;1742088;82;21578;-80
2022/05/18 05:05:23;;;;;;;11.25;5.03;;;;;;;7.84;82.32;99055.97;1723460;82;21462;-81
2022/05/18 05:07:49;;;;;;;5.80;3.72;;;;;;;7.94;80.95;99058.89;1716673;82;22044;-81
2022/05/18 05:10:17;;;;;;;8.33;3.65;;;;;;;7.91;78.62;99063.42;1738520;82;21076;-80
2022/05/18 05:12:45;;;;;;;8.85;4.40;;;;;;;7.98;77.68;99062.77;1743153;81;20997;-81
2022/05/18 05:15:12;;;;;;;10.68;5.03;;;;;;;8.18;77.48;99066.41;1710505;82;21073;-84
2022/05/18 05:17:38;;;;;;;10.95;4.28;;;;;;;8.40;78.70;99066.62;1740800;82;22092;-84
2022/05/18 05:20:06;;;;;;;5.75;3.75;;;;;;;8.62;77.79;99064.06;1743073;81;21017;-83
2022/05/18 05:22:32;;;;;;;8.05;3.50;;;;;;;8.80;76.34;99061.69;1714910;82;21031;-81
2022/05/18 05:24:58;;;;;;;5.40;2.22;;;;;;;9.09;73.23;99073.30;1722916;80;21518;-84
2022/05/18 05:27:23;;;;;;;6.83;2.12;;;;;;;9.18;62.16;99067.24;1715291;82;20893;-81
2022/05/18 05:29:49;;;;;;;6.75;3.62;;;;;;;9.33;66.08;99082.38;1743390;82;21166;-84
2022/05/18 05:32:15;;;;;;;5.92;2.80;;;;;;;9.50;63.00;99086.97;1721165;82;21040;-84
2022/05/18 05:34:42;;;;;;;11.35;3.08;;;;;;;9.73;65.52;99089.47;1730360;80;20978;-84
2022/05/18 05:37:08;;;;;;;5.12;2.77;;;;;;;10.25;68.78;99093.20;1728401;80;21070;-80
2022/05/18 05:39:34;;;;;;;6.37;2.37;;;;;;;10.25;68.78;99093.20;1727094;80;21010;-80
2022/05/18 05:42:00;;;;;;;4.37;1.95;;;;;;;10.51;68.95;99097.07;1728498;80;21284;-84
2022/05/18 05:44:26;;;;;;;3.77;2.37;;;;;;;10.69;68.60;99097.27;1728429;80;21010;-84
2022/05/18 05:46:52;;;;;;;7.45;1.98;;;;;;;10.81;64.08;99102.54;1738402;80;20902;-81
2022/05/18 05:49:18;;;;;;;7.05;2.35;;;;;;;11.01;66.36;99104.09;1740047;80;20929;-84
2022/05/18 05:51:44;;;;;;;3.98;2.15;;;;;;;11.14;65.04;99105.05;1729506;82;20962;-84
2022/05/18 05:54:10;;;;;;;5.12;2.60;;;;;;;11.20;64.05;99114.88;1733947;82;21149;-80
2022/05/18 05:56:36;;;;;;;3.72;2.50;;;;;;;11.35;62.83;99114.72;1742968;81;20961;-83
2022/05/18 05:59:02;;;;;;;3.92;2.12;;;;;;;11.34;62.70;99119.88;1735437;80;21481;-84
2022/05/18 06:01:28;;;;;;;6.22;2.12;;;;;;;11.31;61.39;99118.50;1725042;82;21556;-81
2022/05/18 06:03:54;;;;;;;5.08;1.98;;;;;;;11.40;59.92;99117.49;1717662;80;21068;-81
2022/05/18 06:06:20;;;;;;;3.90;2.12;;;;;;;11.50;59.73;99127.89;1730867;81;21583;-81
2022/05/18 06:08:47;;;;;;;6.53;2.33;;;;;;;11.61;52.47;99133.39;1720819;80;21062;-81
2022/05/18 06:11:13;;;;;;;6.58;2.30;;;;;;;11.64;55.43;99130.18;1720768;82;21076;-84
2022/05/18 06:13:39;;;;;;;4.28;2.55;;;;;;;11.67;57.65;99128.30;1739835;81;22384;-81
2022/05/18 06:16:06;;;;;;;7.70;2.98;;;;;;;11.83;57.28;99133.61;1723183;81;21086;-81
2022/05/18 06:18:33;;;;;;;3.67;2.00;;;;;;;11.91;56.06;99139.09;1734826;80;21046;-81
2022/05/18 06:20:59;;;;;;;9.58;2.87;;;;;;;11.98;55.69;99141.05;1731521;80;21016;-81
2022/05/18 06:23:25;;;;;;;4.30;2.37;;;;;;;11.94;50.28;99139.92;1724772;80;22368;-80
2022/05/18 06:25:52;;;;;;;5.78;2.00;;;;;;;11.94;49.94;99141.28;1734947;80;21033;-81
2022/05/18 06:28:17;;;;;;;5.08;2.15;;;;;;;12.11;50.32;99140.58;1725105;81;21068;-81
2022/05/18 06:30:44;;;;;;;5.55;2.67;;;;;;;12.25;51.19;99147.73;1736495;80;21027;-81
2022/05/18 06:33:10;;;;;;;3.33;2.05;;;;;;;12.49;53.02;99147.33;1723811;81;21025;-81
2022/05/18 06:35:36;;;;;;;4.90;2.55;;;;;;;12.50;50.80;99151.67;1727157;80;20984;-81
2022/05/18 06:38:11;;;;;;;9.90;2.00;;;;;;;12.35;51.48;99151.05;1734974;80;21025;-81
2022/05/18 06:43:23;;;;;;;5.65;2.15;;;;;;;12.48;46.83;99170.98;1736959;80;21068;-84
2022/05/18 06:45:49;;;;;;;3.30;2.02;;;;;;;12.57;45.94;99170.75;1726367;80;21906;-85
2022/05/18 06:48:15;;;;;;;6.85;1.60;;;;;;;12.78;48.54;99173.00;1722513;80;21506;-84
2022/05/18 06:50:41;;;;;;;3.62;1.87;;;;;;;13.07;49.53;99169.28;1730750;80;20854;-84
2022/05/18 06:53:06;;;;;;;6.92;2.25;;;;;;;13.22;50.07;99172.63;1729975;80;20898;-85
2022/05/18 06:55:32;;;;;;;8.35;2.92;;;;;;;13.15;47.26;99169.30;1741214;80;21848;-84
2022/05/18 06:57:58;;;;;;;6.72;2.90;;;;;;;13.09;47.32;99170.39;1735236;80;20858;-84
2022/05/18 07:00:24;;;;;;;5.42;2.35;;;;;;;13.26;47.09;99173.73;1723872;80;21586;-84
2022/05/18 07:02:51;;;;;;;5.75;2.80;;;;;;;13.87;48.35;99177.05;1718703;81;21158;-85
2022/05/18 07:05:18;;;;;;;5.33;2.65;;;;;;;14.51;45.97;99182.69;1732296;80;21008;-85
2022/05/18 07:07:43;;;;;;;7.33;3.50;;;;;;;14.48;43.28;99183.80;1735736;80;21906;-85
2022/05/18 07:10:09;;;;;;;7.92;4.45;;;;;;;14.54;46.70;99184.07;1719546;80;20920;-85
2022/05/18 07:12:37;;;;;;;6.47;2.77;;;;;;;14.63;45.89;99190.04;1726805;80;21036;-81
2022/05/18 07:15:07;;;;;;;7.12;2.62;;;;;;;14.76;43.71;99185.07;1732429;80;20996;-81
2022/05/18 07:17:34;;;;;;;8.00;2.22;;;;;;;14.80;43.95;99187.53;1737000;80;21627;-81
2022/05/18 07:20:03;;;;;;;5.37;2.87;;;;;;;15.00;43.06;99188.80;1735064;80;21125;-81
2022/05/18 07:22:29;;;;;;;6.53;2.52;;;;;;;14.99;38.16;99195.35;1709693;81;20985;-81
2022/05/18 07:24:56;;;;;;;6.25;2.17;;;;;;;15.81;42.79;99184.78;1729764;80;21542;-85
2022/05/18 07:27:22;;;;;;;8.08;2.58;;;;;;;16.34;42.06;99188.94;1724780;80;21006;-84
2022/05/18 07:29:48;;;;;;;3.90;1.87;;;;;;;16.87;39.81;99188.92;1727028;80;21036;-85
2022/05/18 07:32:14;;;;;;;4.47;1.35;;;;;;;17.67;38.60;99188.08;1727166;80;21249;-85
2022/05/18 07:34:41;;;;;;;4.85;1.37;;;;;;;17.76;32.47;99188.50;1728946;80;21036;-85
2022/05/18 07:37:07;;;;;;;4.67;1.20;;;;;;;17.85;30.04;99188.62;1727786;80;21026;-86
2022/05/18 07:39:33;;;;;;;5.03;1.50;;;;;;;18.52;34.08;99182.23;1718282;80;21215;-82
2022/05/18 07:41:59;;;;;;;3.00;1.40;;;;;;;18.74;31.98;99189.00;1718698;80;21035;-82
2022/05/18 07:44:26;;;;;;;1.92;0.78;;;;;;;19.44;31.58;99200.41;1733209;80;21719;-82
2022/05/18 07:46:52;;;;;;;1.77;1.00;;;;;;;18.11;23.10;99200.55;1736273;80;21002;-81
2022/05/18 07:49:18;;;;;;;1.50;0.90;;;;;;;18.80;26.68;99199.59;1735079;80;20971;-82
2022/05/18 07:51:44;;;;;;;3.25;1.37;;;;;;;19.45;27.27;99202.03;1735201;81;21501;-82
2022/05/18 07:54:12;;;;;;;1.27;0.90;;;;;;;19.66;25.91;99205.17;1732911;80;37154;-82
2022/05/18 07:56:38;;;;;;;2.17;0.90;;;;;;;19.83;25.98;99199.00;1720966;80;21095;-82
2022/05/18 07:59:04;;;;;;;4.75;1.52;;;;;;;19.75;24.65;99202.48;1721514;80;21131;-86
2022/05/18 08:01:30;;;;;;;2.95;0.82;;;;;;;20.29;22.84;99203.34;1733012;80;21461;-86
2022/05/18 08:03:56;;;;;;;1.50;1.05;;;;;;;19.98;24.46;99205.47;1723562;80;20902;-86
2022/05/18 08:06:22;;;;;;;5.35;0.98;;;;;;;19.23;23.03;99206.64;1713090;80;20890;-82
2022/05/18 08:08:47;;;;;;;3.33;1.30;;;;;;;20.07;24.12;99204.16;1741610;80;21151;-82
2022/05/18 08:16:42;;;;;;;2.40;1.27;;;;;;;21.77;22.92;99209.56;1733550;81;21167;-82
2022/05/18 08:19:12;;;;;;;5.85;1.22;;;;;;;21.94;24.32;99212.88;1731507;80;20878;-85
2022/05/18 08:21:38;;;;;;;2.30;1.20;;;;;;;20.48;20.84;99221.84;1728245;80;21140;-86
2022/05/18 08:24:05;;;;;;;3.90;1.95;;;;;;;20.42;22.19;99223.06;1730989;80;21061;-86
2022/05/18 08:26:31;;;;;;;4.90;2.35;;;;;;;20.21;24.02;99228.30;1724333;80;21025;-86
2022/05/18 08:29:02;;;;;;;23.20;3.20;;;;;;;20.53;23.93;99222.28;1729545;80;21057;-86
2022/05/18 08:31:27;;;;;;;5.20;1.60;;;;;;;21.22;23.71;99222.55;1726002;80;21032;-86
2022/05/18 08:33:53;;;;;;;3.70;1.77;;;;;;;22.67;23.92;99223.41;1724429;80;21659;-86
2022/05/18 08:36:19;;;;;;;5.78;1.42;;;;;;;22.81;22.93;99234.22;1720983;80;20882;-86
2022/05/18 08:38:46;;;;;;;3.98;2.05;;;;;;;23.34;22.73;99232.30;1737466;80;21103;-86
2022/05/18 08:41:18;;;;;;;3.95;1.35;;;;;;;24.22;19.50;99231.06;1731307;80;21156;-86
2022/05/18 08:43:47;;;;;;;3.20;1.32;;;;;;;23.25;19.94;99233.50;1731971;80;21057;-86
2022/05/18 08:46:31;;;;;;;;;;;;;;;22.10;20.13;99241.64;1737494;80;22402;-86
2022/05/18 08:49:17;;;;;;;5.30;1.70;;;;;;;23.11;22.43;99232.92;1733313;80;20163;-86
2022/05/18 08:52:11;;;;;;;2.10;1.30;;;;;;;23.24;20.02;99240.14;1732629;80;21544;-82
2022/05/18 08:54:46;;;;;;;3.30;1.35;;;;;;;23.78;20.01;99233.41;1722894;80;21013;-82
2022/05/18 08:57:19;;;;;;;5.95;1.75;;;;;;;24.84;20.81;99229.49;1733113;80;21056;-82
2022/05/18 08:59:45;;;;;;;2.55;1.20;;;;;;;23.71;20.50;99229.79;1730465;81;21060;-82
2022/05/18 09:02:28;;;;;;;3.87;1.32;;;;;;;22.96;19.90;99234.28;1735128;80;20998;-82
2022/05/18 09:05:07;;;;;;;2.30;1.20;;;;;;;24.52;20.24;99232.55;1725092;80;21048;-82
2022/05/18 09:07:40;;;;;;;2.20;1.10;;;;;;;24.98;19.49;99223.05;1702440;80;20993;-83
2022/05/18 09:10:16;;;;;;;4.25;1.95;;;;;;;25.87;19.78;99223.06;1720352;80;21084;-83
2022/05/18 09:12:44;;;;;;;4.00;1.92;;;;;;;26.82;17.68;99223.29;1735302;80;21301;-83
2022/05/18 09:15:13;;;;;;;;;;;;;;;26.82;17.52;99223.87;1716313;80;21033;-83
2022/05/18 09:18:01;;;;;;;5.20;1.32;;;;;;;26.09;17.94;99225.09;1723203;80;20214;-87
2022/05/18 09:21:01;;;;;;;3.15;1.10;;;;;;;26.14;18.53;99223.42;1730556;80;21441;-86
2022/05/18 09:23:55;;;;;;;27.00;2.50;;;;;;;26.21;19.09;99222.82;1735245;80;21037;-83
2022/05/18 09:27:00;;;;;;;6.40;1.10;;;;;;;27.16;17.86;99225.95;1714800;81;21725;-85
2022/05/18 09:30:03;;;;;;;4.80;1.20;;;;;;;27.15;17.28;99217.38;1693414;83;21088;-86
2022/05/18 09:32:44;;;;;;;2.35;1.25;;;;;;;27.64;17.00;99223.87;1729493;80;21076;-87
2022/05/18 09:35:48;;;;;;;3.92;2.15;;;;;;;28.16;17.80;99222.59;1723703;80;21024;-87
2022/05/18 09:38:32;;;;;;;4.95;1.40;;;;;;;28.31;16.00;99227.31;1726174;81;21193;-87
2022/05/18 09:40:58;;;;;;;8.40;1.35;;;;;;;28.19;16.04;99226.03;1724446;80;21862;-86
2022/05/18 09:43:46;;;;;;;1.80;1.20;;;;;;;27.47;17.23;99221.50;1719766;80;20901;-85
2022/05/18 09:46:12;;;;;;;;;;;;;;;28.19;17.48;99224.64;1728160;80;21077;-86
2022/05/18 09:49:00;;;;;;;1.92;1.02;;;;;;;26.76;16.44;99221.97;1721889;80;20156;-86
2022/05/18 09:51:26;;;;;;;5.55;1.30;;;;;;;27.69;17.31;99222.23;1726276;80;21083;-86
2022/05/18 09:53:53;;;;;;;5.90;1.60;;;;;;;27.62;15.68;99221.24;1728163;80;21125;-86
2022/05/18 09:56:26;;;;;;;4.10;1.20;;;;;;;26.96;17.05;99225.63;1729769;81;21582;-86
2022/05/18 09:58:52;;;;;;;4.83;1.45;;;;;;;27.58;17.11;99223.93;1728972;80;20997;-83
2022/05/18 10:09:44;;;;;;;3.17;1.30;;;;;;;31.17;15.04;99212.45;1731050;80;21507;-83
2022/05/18 10:12:21;;;;;;;3.58;1.50;;;;;;;31.30;13.91;99213.80;1719128;80;21115;-83
2022/05/18 10:14:53;;;;;;;2.98;1.42;;;;;;;31.74;13.77;99210.05;1713426;80;21501;-84
2022/05/18 10:17:20;;;;;;;7.78;1.47;;;;;;;31.78;14.43;99210.08;1724906;80;21450;-84
2022/05/18 10:19:52;;;;;;;2.83;1.10;;;;;;;31.69;14.22;99206.20;1709392;80;21377;-84
2022/05/18 10:22:25;;;;;;;3.72;0.93;;;;;;;32.49;14.07;99209.77;1726573;80;21029;-83
2022/05/18 10:25:01;;;;;;;4.83;1.10;;;;;;;32.86;13.58;99209.22;1730649;80;21503;-84
2022/05/18 10:27:29;;;;;;;3.52;1.35;;;;;;;31.23;12.07;99203.94;1732023;80;20985;-84
2022/05/18 10:30:19;;;;;;;5.20;1.95;;;;;;;32.93;12.86;99200.80;1725579;80;21477;-84
2022/05/18 10:33:20;;;;;;;2.52;1.00;;;;;;;29.97;14.14;99194.66;1715719;80;21898;-84
2022/05/18 10:35:50;;;;;;;2.08;0.85;;;;;;;31.94;13.38;99202.14;1710123;80;21631;-84
2022/05/18 10:38:28;;;;;;;2.30;0.90;;;;;;;32.83;13.03;99200.37;1740451;80;20989;-84
2022/05/18 10:41:09;;;;;;;7.78;1.15;;;;;;;31.21;12.90;99195.14;1714923;80;21044;-84
2022/05/18 10:43:41;;;;;;;2.77;1.00;;;;;;;31.29;12.41;99186.19;1710783;80;21528;-89
2022/05/18 10:46:18;;;;;;;3.65;1.10;;;;;;;32.34;12.93;99185.69;1728799;80;21099;-89
2022/05/18 10:49:01;;;;;;;2.75;1.10;;;;;;;33.51;13.07;99183.50;1730848;80;27185;-84
2022/05/18 10:51:33;;;;;;;3.92;1.32;;;;;;;33.45;12.34;99186.52;1730623;80;22299;-84
2022/05/18 10:54:27;;;;;;;3.52;1.17;;;;;;;32.86;12.74;99186.77;1724756;80;21064;-84
2022/05/18 10:56:56;;;;;;;4.40;1.22;;;;;;;34.00;12.20;99180.91;1729860;80;21028;-84
2022/05/18 10:59:56;;;;;;;4.17;1.07;;;;;;;32.87;12.09;99179.95;1724916;80;21772;-84
2022/05/18 11:03:03;;;;;;;6.50;1.47;;;;;;;33.74;11.62;99173.77;1734234;80;21153;-84
2022/05/18 11:05:46;;;;;;;5.10;1.27;;;;;;;31.61;11.61;99173.75;1720047;80;21038;-84
2022/05/18 11:08:17;;;;;;;4.85;1.15;;;;;;;33.42;11.13;99166.27;1718991;80;21013;-84
2022/05/18 11:11:04;;;;;;;2.90;0.98;;;;;;;33.15;11.79;99162.27;1730837;80;21005;-84
2022/05/18 11:13:56;;;;;;;1.60;0.80;;;;;;;33.81;11.77;99166.11;1723529;80;22329;-84
2022/05/18 11:16:37;;;;;;;3.87;1.45;;;;;;;32.04;11.97;99173.34;1741348;80;21025;-84
2022/05/18 11:19:26;;;;;;;2.12;1.20;;;;;;;31.38;12.41;99168.45;1731126;80;21192;-84
2022/05/18 11:22:17;;;;;;;4.58;1.25;;;;;;;31.46;12.56;99170.09;1708923;80;21037;-84
2022/05/18 11:25:11;;;;;;;6.15;1.57;;;;;;;30.54;12.88;99163.96;1733742;80;21088;-84
2022/05/18 11:27:46;;;;;;;4.65;1.12;;;;;;;32.36;12.73;99165.05;1724500;82;21040;-83
2022/05/18 11:30:38;;;;;;;2.62;1.02;;;;;;;32.58;12.80;99164.48;1712207;81;21049;-88
2022/05/18 11:33:18;;;;;;;4.67;1.20;;;;;;;33.16;11.98;99161.06;1732595;80;21017;-88
2022/05/18 11:36:10;;;;;;;8.93;1.30;;;;;;;32.81;11.91;99159.86;1725674;80;21074;-84
2022/05/18 11:39:06;;;;;;;2.62;1.00;;;;;;;31.77;12.22;99157.45;1713835;80;21030;-84
2022/05/18 11:42:02;;;;;;;3.00;1.07;;;;;;;31.69;12.08;99155.18;1724771;81;21151;-84
2022/05/18 11:45:05;;;;;;;5.25;0.93;;;;;;;32.23;11.76;99156.80;1731686;80;21009;-84
2022/05/18 11:48:05;;;;;;;4.62;1.47;;;;;;;31.40;11.04;99148.66;1700672;82;21549;-84
2022/05/18 11:50:43;;;;;;;1.52;1.00;;;;;;;33.22;10.82;99152.43;1717440;80;21591;-84
2022/05/18 11:53:24;;;;;;;;;;;;;;;33.93;11.28;99146.63;1715849;80;21001;-84
2022/05/18 11:56:37;;;;;;;2.00;0.80;;;;;;;32.43;11.15;99153.05;1721027;80;21166;-84
2022/05/18 11:59:45;;;;;;;2.30;0.85;;;;;;;31.86;10.98;99147.27;1729862;80;21057;-83
2022/05/18 12:02:20;;;;;;;2.47;1.00;;;;;;;32.88;11.46;99153.48;1735336;81;21087;-84
2022/05/18 12:05:18;;;;;;;3.92;0.98;;;;;;;33.58;11.27;99150.34;1721971;80;20997;-84
2022/05/18 12:08:30;;;;;;;7.05;1.45;;;;;;;32.86;11.62;99155.30;1735765;81;21042;-84
2022/05/18 12:11:29;;;;;;;2.00;1.10;;;;;;;33.75;11.72;99153.69;1723364;81;21477;-84
2022/05/18 12:14:30;;;;;;;5.10;0.80;;;;;;;34.76;10.88;99154.11;1718755;80;21443;-83
2022/05/18 12:17:16;;;;;;;61.08;3.83;;;;;;;34.91;10.71;99150.59;1714133;80;22524;-83
2022/05/18 12:19:50;;;;;;;2.90;0.90;;;;;;;33.80;10.01;99160.30;1708956;80;21052;-83